• Join FlightAware (Why Join?)
  • Login
  • US Flag 
04:46PM EST


 

Airport Tracker/Info


-or-


 

Live Flight TrackerFlight Track Log ✈ N273SK ✈ 28-Apr-2013 ✈ KLEX - KLGA

Flight Track Log - Related Links

Times and Time Zones

All times are in EDT time to prevent confusion due to time zone crossing. See the N273SK flight status page for this flight to view local times or setup timezone preferences in your user account.

Time Position Orientation Groundspeed Altitude Reporting Facility
EDT Latitude Longitude Course Direction KTS MPH feet Rate Location/Type
08:09AM 38.0078 -84.6358 90° East 155 178 2,800  Level Indianapolis Center
08:10AM 37.9661 -84.6625 207° Southwest 196 226 4,900 1,920 Climbing Indianapolis Center
08:11AM 37.9422 -84.5897 113° Southeast 248 285 6,800 2,100 Climbing Indianapolis Center
08:12AM 37.9500 -84.2081 90° East  Level FlightAware Approximate
08:12AM 37.9394 -84.4933 92° East 267 307 9,200  Level Indianapolis Center
08:13AM 37.9448 -84.0656 96° East  Level FlightAware Approximate
08:13AM 37.9369 -84.3875 92° East 294 338 10,700  Level Indianapolis Center
08:14AM 37.9339 -83.9234 96° East  Level FlightAware Approximate
08:14AM 37.9328 -84.2647 92° East 340 391 12,200  Level Indianapolis Center
08:15AM 37.9333 -83.7877 90° East  Level FlightAware Approximate
08:15AM 37.9286 -84.1367 92° East 362 417 14,300  Level Indianapolis Center
08:16AM 37.9231 -84.0081 93° East 364 419 15,800 1,440 Climbing Indianapolis Center
08:17AM 37.9186 -83.8753 92° East 374 430 17,300 1,560 Climbing Indianapolis Center
08:19AM 37.9131 -83.7403 93° East 382 440 19,000 1,980 Climbing Indianapolis Center
08:20AM 37.9069 -83.5822 93° East 384 442 21,400 2,160 Climbing Indianapolis Center
08:21AM 37.9017 -83.4511 93° East 375 432 23,400 1,680 Climbing Indianapolis Center
08:22AM 37.8958 -83.3194 93° East 373 429 24,900 1,380 Climbing Indianapolis Center
08:23AM 37.8903 -83.1853 93° East 379 436 26,300 1,620 Climbing Indianapolis Center
08:24AM 37.8842 -83.0486 93° East 386 444 28,300 1,320 Climbing Indianapolis Center
08:25AM 37.8781 -82.9161 93° East 378 435 29,000 300 Climbing Indianapolis Center
08:26AM 37.8714 -82.7694 93° East 407 468 29,000  Level Indianapolis Center
08:27AM 37.8636 -82.6114 94° East 442 509 29,000  Level Indianapolis Center
08:28AM 37.8547 -82.4447 94° East 466 536 29,000  Level Indianapolis Center
08:29AM 37.8469 -82.2731 93° East 482 555 29,000  Level Indianapolis Center
08:30AM 37.8369 -82.0989 94° East 492 566 29,000  Level Indianapolis Center
08:31AM 37.8283 -81.9231 93° East 498 573 29,000  Level Indianapolis Center
08:32AM 37.8175 -81.7464 94° East 500 575 29,000  Level Indianapolis Center
08:33AM 37.8078 -81.5753 94° East 493 567 29,000  Level Indianapolis Center
08:34AM 37.7986 -81.4106 94° East 484 557 29,000  Level Indianapolis Center
08:34AM 37.7872 -81.2942 97° East 483 556 29,000  Level Washington Center
08:35AM 37.7797 -81.1464 94° East 483 556 29,000  Level Washington Center
08:36AM 37.7872 -80.9814 87° East 478 550 29,000  Level Washington Center
08:37AM 37.8017 -80.7958 84° East 478 550 29,000  Level Washington Center
08:38AM 37.8128 -80.6336 85° East 478 550 29,000  Level Washington Center
08:39AM 37.8239 -80.4686 85° East 473 544 29,000  Level Washington Center
08:40AM 37.8347 -80.3011 85° East 473 544 29,000  Level Washington Center
08:41AM 37.8425 -80.1517 86° East 473 544 29,000  Level Washington Center
08:42AM 37.8528 -79.9867 85° East 473 544 29,000  Level Washington Center
08:43AM 37.8631 -79.8189 86° East 473 544 29,000  Level Washington Center
08:44AM 37.8750 -79.6539 85° East 473 544 29,000  Level Washington Center
08:45AM 37.8850 -79.4833 86° East 478 550 29,000  Level Washington Center
08:46AM 37.8922 -79.3153 87° East 478 550 29,000  Level Washington Center
08:47AM 37.9019 -79.1314 86° East 478 550 29,000  Level Washington Center
08:48AM 37.9214 -78.9667 81° East 478 550 29,000  Level Washington Center
08:49AM 37.9406 -78.8014 82° East 478 550 29,000  Level Washington Center
08:50AM 37.9617 -78.6339 81° East 478 550 29,000  Level Washington Center
08:51AM 37.9803 -78.4711 82° East 478 550 29,000  Level Washington Center
08:52AM 37.9983 -78.3244 81° East 478 550 29,000  Level Washington Center
08:53AM 38.0103 -78.1561 85° East 478 550 29,000  Level Washington Center
08:54AM 38.0244 -77.9800 84° East 471 542 29,000  Level Washington Center
08:55AM 38.0339 -77.8169 86° East 466 536 29,000  Level Washington Center
08:56AM 38.0658 -77.6594 76° East 451 519 29,000  Level Washington Center
08:57AM 38.1347 -77.5214 58° Northeast 451 519 29,000  Level Washington Center
08:58AM 38.2017 -77.3806 59° Northeast 451 519 29,000 -180 Level Washington Center
08:59AM 38.2683 -77.2394 59° Northeast 456 525 28,700 -600 Descending Washington Center
09:00AM 38.3369 -77.0978 58° Northeast 469 540 27,900 -840 Descending Washington Center
09:01AM 38.4033 -76.9508 60° Northeast 469 540 27,100 -480 Descending Washington Center
09:02AM 38.4631 -76.8272 58° Northeast 469 540 27,000 -60 Descending Washington Center
09:03AM 38.5289 -76.6878 59° Northeast 463 533 27,000  Level Washington Center
09:04AM 38.5928 -76.5478 60° Northeast 458 527 27,000  Level Washington Center
09:05AM 38.6561 -76.4106 59° Northeast 458 527 27,000  Level Washington Center
09:06AM 38.7217 -76.2703 59° Northeast 458 527 27,000  Level Washington Center
09:07AM 38.7956 -76.1136 59° Northeast 458 527 27,000  Level Washington Center
09:08AM 38.8606 -75.9783 58° Northeast 458 527 27,000  Level Washington Center
09:09AM 38.9256 -75.8344 60° Northeast 458 527 27,000  Level Washington Center
09:10AM 39.0133 -75.7225 45° Northeast 443 510 27,000  Level Washington Center
09:11AM 39.1114 -75.6317 36° Northeast 438 504 27,000  Level Washington Center
09:12AM 39.2114 -75.5381 36° Northeast 438 504 27,000 -240 Level Washington Center
09:13AM 39.3133 -75.4467 35° Northeast 438 504 26,600 -1,140 Descending Washington Center
09:14AM 39.4175 -75.3525 35° Northeast 445 512 24,800 -1,920 Descending Washington Center
09:15AM 39.5153 -75.2661 34° Northeast 445 512 22,900 -1,980 Descending Washington Center
09:16AM 39.6067 -75.1822 35° Northeast 426 490 20,900 -1,980 Descending Washington Center
09:17AM 39.6917 -75.1033 36° Northeast 389 448 18,900 -1,740 Descending Washington Center
09:18AM 39.7644 -75.0381 35° Northeast 372 428 17,500 -1,740 Descending Washington Center
09:19AM 39.8597 -74.9564 33° Northeast 366 421 15,400 -1,920 Descending Washington Center
09:20AM 39.9322 -74.8825 38° Northeast 384 442 13,800 -1,800 Descending Washington Center
09:21AM 40.0108 -74.7733 47° Northeast 384 442 11,900 -1,740 Descending Washington Center
09:22AM 40.0500 -74.7333 38° Northeast 363 418 11,500 -1,380 Descending New York TRACON
09:23AM 40.1000 -74.6333 57° Northeast 347 399 10,100 -720 Descending New York TRACON
09:24AM 40.1667 -74.5333 49° Northeast 343 395 10,100  Level New York TRACON
09:25AM 40.2500 -74.4500 37° Northeast 347 399 10,100 -120 Level New York TRACON
09:26AM 40.3000 -74.3833 45° Northeast 292 336 9,900 -1,200 Descending New York TRACON
09:27AM 40.3667 -74.3167 37° Northeast 267 307 7,800 -1,440 Descending New York TRACON
09:28AM 40.4167 -74.2667 37° Northeast 265 305 7,100 -420 Descending New York TRACON
09:29AM 40.4667 -74.2000 45° Northeast 262 302 7,100 -300 Level New York TRACON
09:30AM 40.5333 -74.1500 30° Northeast 252 290 6,500 -1,020 Descending New York TRACON
09:31AM 40.5833 -74.0833 45° Northeast 241 277 5,100 -1,200 Descending New York TRACON
09:32AM 40.6333 -74.0500 27° Northeast 235 270 4,100 -540 Descending New York TRACON
09:33AM 40.7167 -74.0333 North 269 310 4,100 -540 Level New York TRACON
09:34AM 40.7833 -74.0000 21° North 260 299 3,100 -540 Descending New York TRACON
09:35AM 40.8500 -73.9500 30° Northeast 256 295 3,100  Level New York TRACON
09:36AM 40.8833 -73.9000 49° Northeast 202 232 3,100 -60 Level New York TRACON
09:37AM 40.9167 -73.8333 56° Northeast 199 229 3,000 -540 Descending New York TRACON
09:38AM 40.9000 -73.7833 114° Southeast 208 239 2,100 -600 Descending New York TRACON
09:39AM 40.8500 -73.8167 207° Southwest 179 206 1,800 -300 Descending New York TRACON